Huvudsida
METAR-TAF:

METAR-TAF

Flygplatser :

Kokshetau Airport

Köksjetau, Kazakstan

latitud: 53-19-48N, longitud: 069-35-48E, höjd: 270 m

Aktuellt väderrapport

Denna rapport gjordes för 4 timmar och 14 minuter sedan, klockan 11:30 UTC
Vind 16 kt från nord/nordväst
Temperatur 9°C
Fuktighet 46%
Tryck 1012 hPa
Sikt 10 km eller mer
Inga moln under 1 500 m eller inga cumulonimbus

METAR: UACK 271130Z 34008MPS CAVOK 09/M02 Q1012 R02/010070 NOSIG RMK QFE735/0980

Tid: 21:44 (15:44 UTC)


TAF: saknas

Aktuella väderrapporter och prognoser från 4000 flygplatser (METAR- och TAF-rapporter).

De tillgängliga stationerna syns som gula och röda prickar på kartan.

För musen över prickarna för att se namnen på stationerna.

Klicka sedan för att få väderrapporter och prognoser.

För att ändra kartan: Klicka på de gröna knapparna med ett svart kors på för att zooma in; den gröna knappen med ett streck på för att zooma ut; eller på de gröna pilarna för angränsande kartor.


METAR-TAF: